Current Conditions
Misty
Conditions



Pressure
1014.92 (hPa) - 29.97 (inHG)
Visibility

6.2 (mimiles) - 10.0 (km)
   Temperature
57  °F
14°C
54  °F
Dewpoint
88  %
 Humidity
   Wind Speed
5  mph
4  kts
8  km/h
2.2  m/s
   Wind Direction
 210°
South South
West
   Airport Data
KDTW
Location Detroit Metropolitan Wayne County Airport 20 mi (32.18 km)
Metar :KDTW 241053Z 21004KT 6SM BR OVC250 14/12 A2997 RMK AO2 SLP147 T01390117
Thu 24th September 05:53 am
   Raw Metar Info
Raw METAR is the most common format in the world for the transmission of observational weather data. It is highly standardized through the International Civil Aviation Organization (ICAO), which allows it to be understood throughout most of the world.
   API Info
Data Provided by
https://www.checkwx.com/weather/KDTW
   © Info
CSS/SVG/PHP scripts were developed by weather34.com for use in the weather34 template © 2015-2020

Guide Info provided by Metar-Wikipedia